sensor_id;sensor_type;location;lat;lon;timestamp;P1;durP1;ratioP1;P2;durP2;ratioP2
21569;SDS011;57598;50.888;4.746;2023-06-22T00:02:04;25.33;;;23.92;;
21569;SDS011;57598;50.888;4.746;2023-06-22T00:04:32;24.33;;;23.02;;
21569;SDS011;57598;50.888;4.746;2023-06-22T00:06:59;25.20;;;23.80;;
21569;SDS011;57598;50.888;4.746;2023-06-22T00:09:30;25.40;;;24.00;;
21569;SDS011;57598;50.888;4.746;2023-06-22T00:11:57;25.05;;;23.65;;
21569;SDS011;57598;50.888;4.746;2023-06-22T00:14:24;26.15;;;24.75;;
21569;SDS011;57598;50.888;4.746;2023-06-22T00:16:51;25.63;;;24.23;;
21569;SDS011;57598;50.888;4.746;2023-06-22T00:19:19;26.00;;;24.60;;
21569;SDS011;57598;50.888;4.746;2023-06-22T00:21:46;26.10;;;24.65;;
21569;SDS011;57598;50.888;4.746;2023-06-22T00:24:17;27.08;;;25.58;;
21569;SDS011;57598;50.888;4.746;2023-06-22T00:26:46;27.10;;;25.60;;
21569;SDS011;57598;50.888;4.746;2023-06-22T00:29:13;26.85;;;25.35;;
21569;SDS011;57598;50.888;4.746;2023-06-22T00:31:41;26.45;;;24.95;;
21569;SDS011;57598;50.888;4.746;2023-06-22T00:34:08;26.80;;;25.20;;
21569;SDS011;57598;50.888;4.746;2023-06-22T00:36:35;26.35;;;24.88;;
21569;SDS011;57598;50.888;4.746;2023-06-22T00:39:02;26.52;;;25.02;;
21569;SDS011;57598;50.888;4.746;2023-06-22T00:41:30;27.35;;;25.85;;
21569;SDS011;57598;50.888;4.746;2023-06-22T00:43:59;29.38;;;27.77;;
21569;SDS011;57598;50.888;4.746;2023-06-22T00:46:26;27.88;;;26.38;;
21569;SDS011;57598;50.888;4.746;2023-06-22T00:48:53;30.38;;;28.65;;
21569;SDS011;57598;50.888;4.746;2023-06-22T00:51:22;30.30;;;28.60;;
21569;SDS011;57598;50.888;4.746;2023-06-22T00:53:49;29.73;;;28.08;;
21569;SDS011;57598;50.888;4.746;2023-06-22T00:56:17;31.45;;;29.35;;
21569;SDS011;57598;50.888;4.746;2023-06-22T00:58:49;30.67;;;28.98;;
21569;SDS011;57598;50.888;4.746;2023-06-22T01:01:19;30.50;;;28.80;;
21569;SDS011;57598;50.888;4.746;2023-06-22T01:03:48;31.50;;;29.70;;
21569;SDS011;57598;50.888;4.746;2023-06-22T01:06:18;32.15;;;30.35;;
21569;SDS011;57598;50.888;4.746;2023-06-22T01:08:53;30.90;;;29.20;;
21569;SDS011;57598;50.888;4.746;2023-06-22T01:11:28;30.75;;;29.05;;
21569;SDS011;57598;50.888;4.746;2023-06-22T01:14:01;31.25;;;29.55;;
21569;SDS011;57598;50.888;4.746;2023-06-22T01:16:35;31.67;;;29.88;;
21569;SDS011;57598;50.888;4.746;2023-06-22T01:19:05;30.00;;;28.30;;
21569;SDS011;57598;50.888;4.746;2023-06-22T01:21:52;31.23;;;29.42;;
21569;SDS011;57598;50.888;4.746;2023-06-22T01:24:23;28.90;;;27.30;;
21569;SDS011;57598;50.888;4.746;2023-06-22T01:26:59;30.02;;;28.23;;
21569;SDS011;57598;50.888;4.746;2023-06-22T01:29:37;30.20;;;28.50;;
21569;SDS011;57598;50.888;4.746;2023-06-22T01:32:05;30.13;;;28.42;;
21569;SDS011;57598;50.888;4.746;2023-06-22T01:34:33;30.67;;;28.88;;
21569;SDS011;57598;50.888;4.746;2023-06-22T01:37:01;30.55;;;28.85;;
21569;SDS011;57598;50.888;4.746;2023-06-22T01:39:29;31.42;;;29.63;;
21569;SDS011;57598;50.888;4.746;2023-06-22T01:41:57;31.10;;;29.40;;
21569;SDS011;57598;50.888;4.746;2023-06-22T01:44:25;31.17;;;29.48;;
21569;SDS011;57598;50.888;4.746;2023-06-22T01:46:55;32.60;;;30.80;;
21569;SDS011;57598;50.888;4.746;2023-06-22T01:49:22;33.08;;;31.17;;
21569;SDS011;57598;50.888;4.746;2023-06-22T01:51:49;33.53;;;31.63;;
21569;SDS011;57598;50.888;4.746;2023-06-22T01:54:16;33.80;;;31.90;;
21569;SDS011;57598;50.888;4.746;2023-06-22T01:56:43;36.88;;;34.67;;
21569;SDS011;57598;50.888;4.746;2023-06-22T01:59:11;36.28;;;34.17;;
21569;SDS011;57598;50.888;4.746;2023-06-22T02:01:44;37.63;;;35.42;;
21569;SDS011;57598;50.888;4.746;2023-06-22T02:04:21;37.78;;;35.58;;
21569;SDS011;57598;50.888;4.746;2023-06-22T02:06:54;37.70;;;35.50;;
21569;SDS011;57598;50.888;4.746;2023-06-22T02:09:24;38.35;;;36.05;;
21569;SDS011;57598;50.888;4.746;2023-06-22T02:11:55;38.67;;;36.37;;
21569;SDS011;57598;50.888;4.746;2023-06-22T02:14:24;41.38;;;38.70;;
21569;SDS011;57598;50.888;4.746;2023-06-22T02:16:52;39.35;;;37.03;;
21569;SDS011;57598;50.888;4.746;2023-06-22T02:19:23;39.45;;;37.05;;
21569;SDS011;57598;50.888;4.746;2023-06-22T02:21:50;40.03;;;37.63;;
21569;SDS011;57598;50.888;4.746;2023-06-22T02:24:17;40.17;;;37.78;;
21569;SDS011;57598;50.888;4.746;2023-06-22T02:26:44;41.05;;;38.55;;
21569;SDS011;57598;50.888;4.746;2023-06-22T02:29:11;41.65;;;39.10;;
21569;SDS011;57598;50.888;4.746;2023-06-22T02:31:38;40.40;;;37.92;;
21569;SDS011;57598;50.888;4.746;2023-06-22T02:34:05;42.42;;;39.85;;
21569;SDS011;57598;50.888;4.746;2023-06-22T02:36:34;41.03;;;38.53;;
21569;SDS011;57598;50.888;4.746;2023-06-22T02:39:01;41.80;;;39.30;;
21569;SDS011;57598;50.888;4.746;2023-06-22T02:41:28;40.03;;;37.63;;
21569;SDS011;57598;50.888;4.746;2023-06-22T02:43:55;40.70;;;38.20;;
21569;SDS011;57598;50.888;4.746;2023-06-22T02:46:22;40.30;;;37.90;;
21569;SDS011;57598;50.888;4.746;2023-06-22T02:48:49;40.65;;;38.15;;
21569;SDS011;57598;50.888;4.746;2023-06-22T02:51:16;39.33;;;36.92;;
21569;SDS011;57598;50.888;4.746;2023-06-22T02:53:45;38.58;;;36.28;;
21569;SDS011;57598;50.888;4.746;2023-06-22T02:56:12;38.33;;;36.03;;
21569;SDS011;57598;50.888;4.746;2023-06-22T02:58:39;38.00;;;35.80;;
21569;SDS011;57598;50.888;4.746;2023-06-22T03:01:06;37.35;;;35.15;;
21569;SDS011;57598;50.888;4.746;2023-06-22T03:03:33;37.03;;;34.92;;
21569;SDS011;57598;50.888;4.746;2023-06-22T03:06:00;36.55;;;34.45;;
21569;SDS011;57598;50.888;4.746;2023-06-22T03:08:27;36.45;;;34.35;;
21569;SDS011;57598;50.888;4.746;2023-06-22T03:10:56;36.78;;;34.67;;
21569;SDS011;57598;50.888;4.746;2023-06-22T03:13:23;36.88;;;34.67;;
21569;SDS011;57598;50.888;4.746;2023-06-22T03:15:50;36.47;;;34.38;;
21569;SDS011;57598;50.888;4.746;2023-06-22T03:18:17;36.45;;;34.35;;
21569;SDS011;57598;50.888;4.746;2023-06-22T03:20:44;35.30;;;33.22;;
21569;SDS011;57598;50.888;4.746;2023-06-22T03:23:11;36.22;;;34.13;;
21569;SDS011;57598;50.888;4.746;2023-06-22T03:25:39;36.45;;;34.30;;
21569;SDS011;57598;50.888;4.746;2023-06-22T03:28:08;36.42;;;34.33;;
21569;SDS011;57598;50.888;4.746;2023-06-22T03:30:35;36.13;;;33.83;;
21569;SDS011;57598;50.888;4.746;2023-06-22T03:33:02;35.55;;;33.47;;
21569;SDS011;57598;50.888;4.746;2023-06-22T03:35:29;35.80;;;33.72;;
21569;SDS011;57598;50.888;4.746;2023-06-22T03:37:56;35.28;;;33.28;;
21569;SDS011;57598;50.888;4.746;2023-06-22T03:40:23;35.08;;;33.05;;
21569;SDS011;57598;50.888;4.746;2023-06-22T03:42:50;34.40;;;32.40;;
21569;SDS011;57598;50.888;4.746;2023-06-22T03:45:18;34.80;;;32.63;;
21569;SDS011;57598;50.888;4.746;2023-06-22T03:47:45;34.92;;;32.92;;
21569;SDS011;57598;50.888;4.746;2023-06-22T03:50:12;32.70;;;30.80;;
21569;SDS011;57598;50.888;4.746;2023-06-22T03:52:39;34.08;;;32.08;;
21569;SDS011;57598;50.888;4.746;2023-06-22T03:55:06;33.10;;;31.20;;
21569;SDS011;57598;50.888;4.746;2023-06-22T03:57:34;32.83;;;30.92;;
21569;SDS011;57598;50.888;4.746;2023-06-22T04:00:01;33.00;;;31.10;;
21569;SDS011;57598;50.888;4.746;2023-06-22T04:02:32;32.55;;;30.65;;
21569;SDS011;57598;50.888;4.746;2023-06-22T04:04:59;32.17;;;30.38;;
21569;SDS011;57598;50.888;4.746;2023-06-22T04:07:26;32.55;;;30.65;;
21569;SDS011;57598;50.888;4.746;2023-06-22T04:09:53;32.30;;;30.50;;
21569;SDS011;57598;50.888;4.746;2023-06-22T04:12:20;33.83;;;31.80;;
21569;SDS011;57598;50.888;4.746;2023-06-22T04:14:46;32.85;;;31.00;;
21569;SDS011;57598;50.888;4.746;2023-06-22T04:17:13;33.42;;;31.52;;
21569;SDS011;57598;50.888;4.746;2023-06-22T04:19:42;33.80;;;31.90;;
21569;SDS011;57598;50.888;4.746;2023-06-22T04:22:09;35.15;;;33.15;;
21569;SDS011;57598;50.888;4.746;2023-06-22T04:24:37;34.65;;;32.40;;
21569;SDS011;57598;50.888;4.746;2023-06-22T04:27:04;33.67;;;31.67;;
21569;SDS011;57598;50.888;4.746;2023-06-22T04:29:31;35.00;;;33.00;;
21569;SDS011;57598;50.888;4.746;2023-06-22T04:31:58;35.00;;;32.90;;
21569;SDS011;57598;50.888;4.746;2023-06-22T04:34:28;33.33;;;31.52;;
21569;SDS011;57598;50.888;4.746;2023-06-22T04:36:56;33.33;;;31.42;;
21569;SDS011;57598;50.888;4.746;2023-06-22T04:39:24;33.88;;;31.70;;
21569;SDS011;57598;50.888;4.746;2023-06-22T04:41:52;34.58;;;32.58;;
21569;SDS011;57598;50.888;4.746;2023-06-22T04:44:20;34.58;;;32.47;;
21569;SDS011;57598;50.888;4.746;2023-06-22T04:46:50;34.65;;;32.65;;
21569;SDS011;57598;50.888;4.746;2023-06-22T04:49:20;36.28;;;34.17;;
21569;SDS011;57598;50.888;4.746;2023-06-22T04:51:47;36.53;;;34.42;;
21569;SDS011;57598;50.888;4.746;2023-06-22T04:54:18;34.78;;;32.78;;
21569;SDS011;57598;50.888;4.746;2023-06-22T04:56:45;37.05;;;34.85;;
21569;SDS011;57598;50.888;4.746;2023-06-22T04:59:14;36.08;;;33.97;;
21569;SDS011;57598;50.888;4.746;2023-06-22T05:01:43;36.67;;;34.57;;
21569;SDS011;57598;50.888;4.746;2023-06-22T05:04:10;35.40;;;33.40;;
21569;SDS011;57598;50.888;4.746;2023-06-22T05:06:37;36.83;;;34.63;;
21569;SDS011;57598;50.888;4.746;2023-06-22T05:09:04;35.97;;;33.88;;
21569;SDS011;57598;50.888;4.746;2023-06-22T05:11:33;36.00;;;33.83;;
21569;SDS011;57598;50.888;4.746;2023-06-22T05:14:00;35.60;;;33.55;;
21569;SDS011;57598;50.888;4.746;2023-06-22T05:16:27;36.60;;;34.50;;
21569;SDS011;57598;50.888;4.746;2023-06-22T05:18:54;34.40;;;32.40;;
21569;SDS011;57598;50.888;4.746;2023-06-22T05:21:22;34.00;;;32.10;;
21569;SDS011;57598;50.888;4.746;2023-06-22T05:23:50;32.88;;;31.05;;
21569;SDS011;57598;50.888;4.746;2023-06-22T05:26:17;34.72;;;32.72;;
21569;SDS011;57598;50.888;4.746;2023-06-22T05:28:47;33.50;;;31.60;;
21569;SDS011;57598;50.888;4.746;2023-06-22T05:31:14;36.03;;;33.83;;
21569;SDS011;57598;50.888;4.746;2023-06-22T05:33:42;33.38;;;31.48;;
21569;SDS011;57598;50.888;4.746;2023-06-22T05:36:10;35.45;;;33.42;;
21569;SDS011;57598;50.888;4.746;2023-06-22T05:38:40;33.95;;;32.05;;
21569;SDS011;57598;50.888;4.746;2023-06-22T05:41:08;35.05;;;33.00;;
21569;SDS011;57598;50.888;4.746;2023-06-22T05:43:35;33.90;;;32.00;;
21569;SDS011;57598;50.888;4.746;2023-06-22T05:46:03;33.80;;;31.90;;
21569;SDS011;57598;50.888;4.746;2023-06-22T05:48:30;35.22;;;33.17;;
21569;SDS011;57598;50.888;4.746;2023-06-22T05:50:58;35.13;;;33.03;;
21569;SDS011;57598;50.888;4.746;2023-06-22T05:53:25;35.58;;;33.58;;
21569;SDS011;57598;50.888;4.746;2023-06-22T05:55:52;34.25;;;32.35;;
21569;SDS011;57598;50.888;4.746;2023-06-22T05:58:19;34.83;;;32.72;;
21569;SDS011;57598;50.888;4.746;2023-06-22T06:00:46;35.92;;;33.72;;
21569;SDS011;57598;50.888;4.746;2023-06-22T06:03:15;35.70;;;33.60;;
21569;SDS011;57598;50.888;4.746;2023-06-22T06:05:42;34.45;;;32.55;;
21569;SDS011;57598;50.888;4.746;2023-06-22T06:08:10;39.28;;;36.85;;
21569;SDS011;57598;50.888;4.746;2023-06-22T06:10:37;33.63;;;31.73;;
21569;SDS011;57598;50.888;4.746;2023-06-22T06:13:04;35.45;;;33.20;;
21569;SDS011;57598;50.888;4.746;2023-06-22T06:15:32;36.00;;;33.70;;
21569;SDS011;57598;50.888;4.746;2023-06-22T06:18:00;34.60;;;32.60;;
21569;SDS011;57598;50.888;4.746;2023-06-22T06:20:31;35.40;;;33.30;;
21569;SDS011;57598;50.888;4.746;2023-06-22T06:22:58;38.45;;;36.17;;
21569;SDS011;57598;50.888;4.746;2023-06-22T06:25:25;33.63;;;31.73;;
21569;SDS011;57598;50.888;4.746;2023-06-22T06:27:53;33.55;;;31.65;;
21569;SDS011;57598;50.888;4.746;2023-06-22T06:30:20;36.20;;;34.03;;
21569;SDS011;57598;50.888;4.746;2023-06-22T06:32:49;33.08;;;31.17;;
21569;SDS011;57598;50.888;4.746;2023-06-22T06:35:16;35.55;;;33.33;;
21569;SDS011;57598;50.888;4.746;2023-06-22T06:37:45;34.78;;;32.58;;
21569;SDS011;57598;50.888;4.746;2023-06-22T06:40:14;30.95;;;29.25;;
21569;SDS011;57598;50.888;4.746;2023-06-22T06:42:44;34.10;;;32.00;;
21569;SDS011;57598;50.888;4.746;2023-06-22T06:45:12;31.85;;;30.05;;
21569;SDS011;57598;50.888;4.746;2023-06-22T06:47:41;35.55;;;33.38;;
21569;SDS011;57598;50.888;4.746;2023-06-22T06:50:08;32.45;;;30.33;;
21569;SDS011;57598;50.888;4.746;2023-06-22T06:52:36;35.03;;;32.55;;
21569;SDS011;57598;50.888;4.746;2023-06-22T06:55:05;33.67;;;30.33;;
21569;SDS011;57598;50.888;4.746;2023-06-22T06:57:35;30.83;;;28.90;;
21569;SDS011;57598;50.888;4.746;2023-06-22T07:00:02;30.35;;;28.55;;
21569;SDS011;57598;50.888;4.746;2023-06-22T07:02:38;30.90;;;28.85;;
21569;SDS011;57598;50.888;4.746;2023-06-22T07:05:06;26.08;;;24.60;;
21569;SDS011;57598;50.888;4.746;2023-06-22T07:07:33;29.15;;;27.17;;
21569;SDS011;57598;50.888;4.746;2023-06-22T07:10:01;28.83;;;26.83;;
21569;SDS011;57598;50.888;4.746;2023-06-22T07:12:29;27.35;;;25.65;;
21569;SDS011;57598;50.888;4.746;2023-06-22T07:15:00;28.25;;;26.25;;
21569;SDS011;57598;50.888;4.746;2023-06-22T07:17:29;34.80;;;28.40;;
21569;SDS011;57598;50.888;4.746;2023-06-22T07:19:56;31.15;;;27.90;;
21569;SDS011;57598;50.888;4.746;2023-06-22T07:22:23;29.02;;;27.27;;
21569;SDS011;57598;50.888;4.746;2023-06-22T07:24:50;28.92;;;26.95;;
21569;SDS011;57598;50.888;4.746;2023-06-22T07:27:17;28.02;;;26.25;;
21569;SDS011;57598;50.888;4.746;2023-06-22T07:29:46;28.05;;;25.83;;
21569;SDS011;57598;50.888;4.746;2023-06-22T07:32:13;26.45;;;24.85;;
21569;SDS011;57598;50.888;4.746;2023-06-22T07:34:40;25.48;;;23.85;;
21569;SDS011;57598;50.888;4.746;2023-06-22T07:37:08;27.42;;;25.20;;
21569;SDS011;57598;50.888;4.746;2023-06-22T07:39:35;27.10;;;25.27;;
21569;SDS011;57598;50.888;4.746;2023-06-22T07:42:03;27.67;;;24.92;;
21569;SDS011;57598;50.888;4.746;2023-06-22T07:44:30;26.65;;;24.83;;
21569;SDS011;57598;50.888;4.746;2023-06-22T07:46:58;26.80;;;25.10;;
21569;SDS011;57598;50.888;4.746;2023-06-22T07:49:25;24.15;;;22.55;;
21569;SDS011;57598;50.888;4.746;2023-06-22T07:51:54;26.27;;;24.58;;
21569;SDS011;57598;50.888;4.746;2023-06-22T07:54:20;26.35;;;24.73;;
21569;SDS011;57598;50.888;4.746;2023-06-22T07:56:48;25.15;;;23.63;;
21569;SDS011;57598;50.888;4.746;2023-06-22T07:59:15;25.70;;;24.10;;
21569;SDS011;57598;50.888;4.746;2023-06-22T08:01:42;27.33;;;25.50;;
21569;SDS011;57598;50.888;4.746;2023-06-22T08:04:10;26.23;;;24.40;;
21569;SDS011;57598;50.888;4.746;2023-06-22T08:06:37;25.23;;;23.73;;
21569;SDS011;57598;50.888;4.746;2023-06-22T08:09:04;24.17;;;22.88;;
21569;SDS011;57598;50.888;4.746;2023-06-22T08:11:31;25.35;;;23.85;;
21569;SDS011;57598;50.888;4.746;2023-06-22T08:13:59;26.77;;;24.80;;
21569;SDS011;57598;50.888;4.746;2023-06-22T08:16:26;24.77;;;23.30;;
21569;SDS011;57598;50.888;4.746;2023-06-22T08:18:53;25.35;;;23.85;;
21569;SDS011;57598;50.888;4.746;2023-06-22T08:21:21;25.80;;;24.27;;
21569;SDS011;57598;50.888;4.746;2023-06-22T08:23:48;26.25;;;24.65;;
21569;SDS011;57598;50.888;4.746;2023-06-22T08:26:15;26.75;;;25.02;;
21569;SDS011;57598;50.888;4.746;2023-06-22T08:28:42;23.50;;;22.20;;
21569;SDS011;57598;50.888;4.746;2023-06-22T08:31:09;24.40;;;23.10;;
21569;SDS011;57598;50.888;4.746;2023-06-22T08:33:39;25.30;;;23.90;;
21569;SDS011;57598;50.888;4.746;2023-06-22T08:36:08;23.80;;;22.40;;
21569;SDS011;57598;50.888;4.746;2023-06-22T08:38:37;24.42;;;23.02;;
21569;SDS011;57598;50.888;4.746;2023-06-22T08:41:04;23.35;;;22.05;;
21569;SDS011;57598;50.888;4.746;2023-06-22T08:43:31;25.85;;;24.27;;
21569;SDS011;57598;50.888;4.746;2023-06-22T08:45:58;23.90;;;22.50;;
21569;SDS011;57598;50.888;4.746;2023-06-22T08:48:26;24.33;;;22.92;;
21569;SDS011;57598;50.888;4.746;2023-06-22T08:50:53;23.13;;;21.83;;
21569;SDS011;57598;50.888;4.746;2023-06-22T08:53:20;23.15;;;21.85;;
21569;SDS011;57598;50.888;4.746;2023-06-22T08:55:48;24.45;;;23.05;;
21569;SDS011;57598;50.888;4.746;2023-06-22T08:58:16;22.98;;;21.20;;
21569;SDS011;57598;50.888;4.746;2023-06-22T09:00:43;21.80;;;20.60;;
21569;SDS011;57598;50.888;4.746;2023-06-22T09:03:10;21.00;;;19.80;;
21569;SDS011;57598;50.888;4.746;2023-06-22T09:05:37;21.60;;;20.40;;
21569;SDS011;57598;50.888;4.746;2023-06-22T09:08:04;22.08;;;20.80;;
21569;SDS011;57598;50.888;4.746;2023-06-22T09:10:31;23.88;;;22.40;;
21569;SDS011;57598;50.888;4.746;2023-06-22T09:12:59;23.90;;;22.58;;
21569;SDS011;57598;50.888;4.746;2023-06-22T09:15:27;23.23;;;21.92;;
21569;SDS011;57598;50.888;4.746;2023-06-22T09:17:54;23.73;;;22.33;;
21569;SDS011;57598;50.888;4.746;2023-06-22T09:20:22;23.98;;;22.67;;
21569;SDS011;57598;50.888;4.746;2023-06-22T09:22:49;25.10;;;23.67;;
21569;SDS011;57598;50.888;4.746;2023-06-22T09:25:16;26.02;;;24.63;;
21569;SDS011;57598;50.888;4.746;2023-06-22T09:27:45;25.88;;;24.48;;
21569;SDS011;57598;50.888;4.746;2023-06-22T09:30:14;26.45;;;25.05;;
21569;SDS011;57598;50.888;4.746;2023-06-22T09:32:41;26.45;;;25.05;;
21569;SDS011;57598;50.888;4.746;2023-06-22T09:35:09;31.38;;;29.58;;
21569;SDS011;57598;50.888;4.746;2023-06-22T09:37:38;31.30;;;29.60;;
21569;SDS011;57598;50.888;4.746;2023-06-22T09:40:06;34.78;;;32.78;;
21569;SDS011;57598;50.888;4.746;2023-06-22T09:42:36;35.67;;;33.67;;
21569;SDS011;57598;50.888;4.746;2023-06-22T09:45:03;37.20;;;35.00;;
21569;SDS011;57598;50.888;4.746;2023-06-22T09:47:33;40.28;;;37.88;;
21569;SDS011;57598;50.888;4.746;2023-06-22T09:50:00;43.78;;;40.67;;
21569;SDS011;57598;50.888;4.746;2023-06-22T09:52:27;47.90;;;44.70;;
21569;SDS011;57598;50.888;4.746;2023-06-22T09:54:54;131.50;;;123.40;;
21569;SDS011;57598;50.888;4.746;2023-06-22T09:57:21;181.90;;;168.43;;
21569;SDS011;57598;50.888;4.746;2023-06-22T09:59:48;226.98;;;209.90;;
21569;SDS011;57598;50.888;4.746;2023-06-22T10:02:15;238.52;;;220.60;;
21569;SDS011;57598;50.888;4.746;2023-06-22T10:04:43;302.38;;;282.20;;
21569;SDS011;57598;50.888;4.746;2023-06-22T10:07:10;286.00;;;264.42;;
21569;SDS011;57598;50.888;4.746;2023-06-22T10:09:37;275.10;;;252.65;;
21569;SDS011;57598;50.888;4.746;2023-06-22T10:12:05;272.02;;;249.63;;
21569;SDS011;57598;50.888;4.746;2023-06-22T10:14:32;260.48;;;239.38;;
21569;SDS011;57598;50.888;4.746;2023-06-22T10:16:59;240.73;;;221.27;;
21569;SDS011;57598;50.888;4.746;2023-06-22T10:19:26;157.50;;;145.25;;
21569;SDS011;57598;50.888;4.746;2023-06-22T10:21:55;99.38;;;90.60;;
21569;SDS011;57598;50.888;4.746;2023-06-22T10:24:22;83.25;;;75.85;;
21569;SDS011;57598;50.888;4.746;2023-06-22T10:26:49;229.98;;;211.85;;
21569;SDS011;57598;50.888;4.746;2023-06-22T10:29:16;269.33;;;248.45;;
21569;SDS011;57598;50.888;4.746;2023-06-22T10:31:43;445.02;;;416.27;;
21569;SDS011;57598;50.888;4.746;2023-06-22T10:34:10;462.08;;;432.38;;
21569;SDS011;57598;50.888;4.746;2023-06-22T10:36:37;427.10;;;399.48;;
21569;SDS011;57598;50.888;4.746;2023-06-22T10:39:06;408.75;;;381.45;;
21569;SDS011;57598;50.888;4.746;2023-06-22T10:41:33;362.05;;;335.75;;
21569;SDS011;57598;50.888;4.746;2023-06-22T10:44:01;334.98;;;310.17;;
21569;SDS011;57598;50.888;4.746;2023-06-22T10:46:28;297.13;;;275.77;;
21569;SDS011;57598;50.888;4.746;2023-06-22T10:48:55;247.30;;;229.65;;
21569;SDS011;57598;50.888;4.746;2023-06-22T10:51:23;205.50;;;190.88;;
21569;SDS011;57598;50.888;4.746;2023-06-22T10:53:50;167.43;;;154.90;;
21569;SDS011;57598;50.888;4.746;2023-06-22T10:56:19;163.60;;;151.30;;
21569;SDS011;57598;50.888;4.746;2023-06-22T10:58:46;159.30;;;147.00;;
21569;SDS011;57598;50.888;4.746;2023-06-22T11:01:13;162.98;;;150.55;;
21569;SDS011;57598;50.888;4.746;2023-06-22T11:03:40;166.55;;;153.75;;
21569;SDS011;57598;50.888;4.746;2023-06-22T11:06:07;160.32;;;148.23;;
21569;SDS011;57598;50.888;4.746;2023-06-22T11:08:34;161.27;;;148.43;;
21569;SDS011;57598;50.888;4.746;2023-06-22T11:11:01;159.77;;;147.30;;
21569;SDS011;57598;50.888;4.746;2023-06-22T11:13:29;164.55;;;152.13;;
21569;SDS011;57598;50.888;4.746;2023-06-22T11:15:56;174.82;;;157.98;;
21569;SDS011;57598;50.888;4.746;2023-06-22T11:18:23;170.75;;;156.75;;
21569;SDS011;57598;50.888;4.746;2023-06-22T11:20:50;171.27;;;157.73;;
21569;SDS011;57598;50.888;4.746;2023-06-22T11:23:18;167.80;;;154.63;;
21569;SDS011;57598;50.888;4.746;2023-06-22T11:25:45;146.98;;;135.88;;
21569;SDS011;57598;50.888;4.746;2023-06-22T11:28:12;132.20;;;122.50;;
21569;SDS011;57598;50.888;4.746;2023-06-22T11:30:40;142.55;;;132.00;;
21569;SDS011;57598;50.888;4.746;2023-06-22T11:33:07;131.32;;;121.53;;
21569;SDS011;57598;50.888;4.746;2023-06-22T11:35:41;122.85;;;113.45;;
21569;SDS011;57598;50.888;4.746;2023-06-22T11:38:08;111.68;;;102.78;;
21569;SDS011;57598;50.888;4.746;2023-06-22T11:40:35;109.30;;;100.50;;
21569;SDS011;57598;50.888;4.746;2023-06-22T11:43:02;98.07;;;90.03;;
21569;SDS011;57598;50.888;4.746;2023-06-22T11:45:29;88.03;;;80.63;;
21569;SDS011;57598;50.888;4.746;2023-06-22T11:47:57;90.53;;;82.82;;
21569;SDS011;57598;50.888;4.746;2023-06-22T11:50:24;92.43;;;84.05;;
21569;SDS011;57598;50.888;4.746;2023-06-22T11:52:53;91.75;;;83.22;;
21569;SDS011;57598;50.888;4.746;2023-06-22T11:55:20;85.50;;;78.20;;
21569;SDS011;57598;50.888;4.746;2023-06-22T11:57:54;77.82;;;71.13;;
21569;SDS011;57598;50.888;4.746;2023-06-22T12:00:23;76.07;;;69.47;;
21569;SDS011;57598;50.888;4.746;2023-06-22T12:02:50;73.43;;;66.45;;
21569;SDS011;57598;50.888;4.746;2023-06-22T12:05:19;66.07;;;60.22;;
21569;SDS011;57598;50.888;4.746;2023-06-22T12:07:47;59.72;;;54.75;;
21569;SDS011;57598;50.888;4.746;2023-06-22T12:10:14;65.32;;;59.03;;
21569;SDS011;57598;50.888;4.746;2023-06-22T12:12:44;59.58;;;54.67;;
21569;SDS011;57598;50.888;4.746;2023-06-22T12:15:11;62.88;;;57.70;;
21569;SDS011;57598;50.888;4.746;2023-06-22T12:17:38;57.58;;;52.63;;
21569;SDS011;57598;50.888;4.746;2023-06-22T12:20:06;59.65;;;54.42;;
21569;SDS011;57598;50.888;4.746;2023-06-22T12:22:35;59.95;;;53.95;;
21569;SDS011;57598;50.888;4.746;2023-06-22T12:25:03;59.97;;;54.65;;
21569;SDS011;57598;50.888;4.746;2023-06-22T12:27:31;57.13;;;52.13;;
21569;SDS011;57598;50.888;4.746;2023-06-22T12:29:58;61.67;;;55.65;;
21569;SDS011;57598;50.888;4.746;2023-06-22T12:32:25;62.72;;;56.92;;
21569;SDS011;57598;50.888;4.746;2023-06-22T12:34:52;61.35;;;55.78;;
21569;SDS011;57598;50.888;4.746;2023-06-22T12:37:19;61.63;;;55.47;;
21569;SDS011;57598;50.888;4.746;2023-06-22T12:39:48;144.57;;;133.80;;
21569;SDS011;57598;50.888;4.746;2023-06-22T12:42:15;132.05;;;122.15;;
21569;SDS011;57598;50.888;4.746;2023-06-22T12:44:42;137.70;;;127.30;;
21569;SDS011;57598;50.888;4.746;2023-06-22T12:47:09;163.65;;;151.20;;
21569;SDS011;57598;50.888;4.746;2023-06-22T12:49:36;160.55;;;148.73;;
21569;SDS011;57598;50.888;4.746;2023-06-22T12:52:08;156.85;;;144.95;;
21569;SDS011;57598;50.888;4.746;2023-06-22T12:54:36;174.07;;;160.50;;
21569;SDS011;57598;50.888;4.746;2023-06-22T12:57:05;151.65;;;139.90;;
21569;SDS011;57598;50.888;4.746;2023-06-22T12:59:32;132.38;;;122.68;;
21569;SDS011;57598;50.888;4.746;2023-06-22T13:02:00;124.85;;;115.45;;
21569;SDS011;57598;50.888;4.746;2023-06-22T13:04:27;127.82;;;117.97;;
21569;SDS011;57598;50.888;4.746;2023-06-22T13:06:54;125.50;;;115.90;;
21569;SDS011;57598;50.888;4.746;2023-06-22T13:09:21;126.70;;;116.78;;
21569;SDS011;57598;50.888;4.746;2023-06-22T13:11:48;124.80;;;115.07;;
21569;SDS011;57598;50.888;4.746;2023-06-22T13:14:17;125.40;;;114.45;;
21569;SDS011;57598;50.888;4.746;2023-06-22T13:16:44;125.80;;;115.80;;
21569;SDS011;57598;50.888;4.746;2023-06-22T13:19:11;110.30;;;101.40;;
21569;SDS011;57598;50.888;4.746;2023-06-22T13:21:38;123.53;;;113.50;;
21569;SDS011;57598;50.888;4.746;2023-06-22T13:24:06;120.95;;;111.82;;
21569;SDS011;57598;50.888;4.746;2023-06-22T13:26:33;120.57;;;111.45;;
21569;SDS011;57598;50.888;4.746;2023-06-22T13:29:00;125.57;;;115.40;;
21569;SDS011;57598;50.888;4.746;2023-06-22T13:31:28;121.30;;;112.13;;
21569;SDS011;57598;50.888;4.746;2023-06-22T13:33:55;126.40;;;115.75;;
21569;SDS011;57598;50.888;4.746;2023-06-22T13:36:22;110.25;;;101.72;;
21569;SDS011;57598;50.888;4.746;2023-06-22T13:38:50;114.05;;;105.22;;
21569;SDS011;57598;50.888;4.746;2023-06-22T13:41:17;117.57;;;108.25;;
21569;SDS011;57598;50.888;4.746;2023-06-22T13:43:44;118.30;;;109.10;;
21569;SDS011;57598;50.888;4.746;2023-06-22T13:46:11;107.70;;;99.40;;
21569;SDS011;57598;50.888;4.746;2023-06-22T13:48:39;120.40;;;110.57;;
21569;SDS011;57598;50.888;4.746;2023-06-22T13:51:06;120.53;;;111.40;;
21569;SDS011;57598;50.888;4.746;2023-06-22T13:53:33;126.95;;;116.95;;
21569;SDS011;57598;50.888;4.746;2023-06-22T13:56:00;133.45;;;123.35;;
21569;SDS011;57598;50.888;4.746;2023-06-22T13:58:27;126.55;;;117.05;;
21569;SDS011;57598;50.888;4.746;2023-06-22T14:00:54;125.32;;;115.90;;
21569;SDS011;57598;50.888;4.746;2023-06-22T14:03:21;126.20;;;116.43;;
21569;SDS011;57598;50.888;4.746;2023-06-22T14:05:50;117.00;;;108.30;;
21569;SDS011;57598;50.888;4.746;2023-06-22T14:08:19;112.10;;;103.30;;
21569;SDS011;57598;50.888;4.746;2023-06-22T14:10:48;118.03;;;109.05;;
21569;SDS011;57598;50.888;4.746;2023-06-22T14:13:15;134.68;;;124.70;;
21569;SDS011;57598;50.888;4.746;2023-06-22T14:15:42;129.93;;;120.28;;
21569;SDS011;57598;50.888;4.746;2023-06-22T14:18:09;123.70;;;114.30;;
21569;SDS011;57598;50.888;4.746;2023-06-22T14:20:36;124.28;;;114.68;;